sensor_id;sensor_type;location;lat;lon;timestamp;P1;durP1;ratioP1;P2;durP2;ratioP2
43676;SDS011;29275;48.800;18.102;2023-03-24T00:00:04;11.32;;;5.18;;
43676;SDS011;29275;48.800;18.102;2023-03-24T00:03:13;8.68;;;4.85;;
43676;SDS011;29275;48.800;18.102;2023-03-24T00:06:19;9.52;;;4.65;;
43676;SDS011;29275;48.800;18.102;2023-03-24T00:09:24;8.82;;;5.07;;
43676;SDS011;29275;48.800;18.102;2023-03-24T00:12:27;8.90;;;4.65;;
43676;SDS011;29275;48.800;18.102;2023-03-24T00:15:30;11.98;;;3.92;;
43676;SDS011;29275;48.800;18.102;2023-03-24T00:18:33;7.18;;;4.22;;
43676;SDS011;29275;48.800;18.102;2023-03-24T00:21:36;7.75;;;3.58;;
43676;SDS011;29275;48.800;18.102;2023-03-24T00:24:42;7.22;;;3.53;;
43676;SDS011;29275;48.800;18.102;2023-03-24T00:27:47;5.68;;;3.85;;
43676;SDS011;29275;48.800;18.102;2023-03-24T00:30:50;8.88;;;4.05;;
43676;SDS011;29275;48.800;18.102;2023-03-24T00:33:53;7.95;;;4.30;;
43676;SDS011;29275;48.800;18.102;2023-03-24T00:36:56;9.02;;;4.75;;
43676;SDS011;29275;48.800;18.102;2023-03-24T00:39:59;8.48;;;4.35;;
43676;SDS011;29275;48.800;18.102;2023-03-24T00:43:02;6.90;;;4.47;;
43676;SDS011;29275;48.800;18.102;2023-03-24T00:46:07;14.25;;;4.60;;
43676;SDS011;29275;48.800;18.102;2023-03-24T00:49:12;7.22;;;3.83;;
43676;SDS011;29275;48.800;18.102;2023-03-24T00:52:17;5.13;;;2.88;;
43676;SDS011;29275;48.800;18.102;2023-03-24T00:55:26;5.70;;;4.05;;
43676;SDS011;29275;48.800;18.102;2023-03-24T00:58:30;6.22;;;3.67;;
43676;SDS011;29275;48.800;18.102;2023-03-24T01:01:35;6.85;;;4.38;;
43676;SDS011;29275;48.800;18.102;2023-03-24T01:04:40;11.20;;;4.50;;
43676;SDS011;29275;48.800;18.102;2023-03-24T01:07:47;6.78;;;3.60;;
43676;SDS011;29275;48.800;18.102;2023-03-24T01:10:53;8.65;;;4.35;;
43676;SDS011;29275;48.800;18.102;2023-03-24T01:13:57;6.90;;;4.45;;
43676;SDS011;29275;48.800;18.102;2023-03-24T01:17:00;6.55;;;4.22;;
43676;SDS011;29275;48.800;18.102;2023-03-24T01:20:03;6.50;;;3.53;;
43676;SDS011;29275;48.800;18.102;2023-03-24T01:23:09;6.32;;;3.70;;
43676;SDS011;29275;48.800;18.102;2023-03-24T01:26:15;5.23;;;3.30;;
43676;SDS011;29275;48.800;18.102;2023-03-24T01:29:18;21.38;;;4.57;;
43676;SDS011;29275;48.800;18.102;2023-03-24T01:32:21;8.95;;;4.50;;
43676;SDS011;29275;48.800;18.102;2023-03-24T01:35:25;10.73;;;3.60;;
43676;SDS011;29275;48.800;18.102;2023-03-24T01:38:32;6.07;;;3.42;;
43676;SDS011;29275;48.800;18.102;2023-03-24T01:41:36;9.18;;;4.13;;
43676;SDS011;29275;48.800;18.102;2023-03-24T01:44:49;7.45;;;4.07;;
43676;SDS011;29275;48.800;18.102;2023-03-24T01:47:53;7.35;;;4.53;;
43676;SDS011;29275;48.800;18.102;2023-03-24T01:50:59;5.68;;;3.75;;
43676;SDS011;29275;48.800;18.102;2023-03-24T01:54:09;7.88;;;3.80;;
43676;SDS011;29275;48.800;18.102;2023-03-24T01:57:19;8.85;;;3.95;;
43676;SDS011;29275;48.800;18.102;2023-03-24T02:00:25;6.68;;;3.72;;
43676;SDS011;29275;48.800;18.102;2023-03-24T02:03:55;9.02;;;3.28;;
43676;SDS011;29275;48.800;18.102;2023-03-24T02:07:02;8.20;;;3.78;;
43676;SDS011;29275;48.800;18.102;2023-03-24T02:10:11;7.82;;;3.83;;
43676;SDS011;29275;48.800;18.102;2023-03-24T02:13:16;7.47;;;3.90;;
43676;SDS011;29275;48.800;18.102;2023-03-24T02:19:56;6.57;;;3.47;;
43676;SDS011;29275;48.800;18.102;2023-03-24T02:56:39;11.98;;;3.50;;
43676;SDS011;29275;48.800;18.102;2023-03-24T03:00:14;5.88;;;3.42;;
43676;SDS011;29275;48.800;18.102;2023-03-24T03:03:41;6.30;;;3.75;;
43676;SDS011;29275;48.800;18.102;2023-03-24T03:06:50;7.95;;;4.03;;
43676;SDS011;29275;48.800;18.102;2023-03-24T03:13:22;8.38;;;3.95;;
43676;SDS011;29275;48.800;18.102;2023-03-24T03:16:36;6.35;;;3.67;;
43676;SDS011;29275;48.800;18.102;2023-03-24T03:19:48;8.85;;;3.60;;
43676;SDS011;29275;48.800;18.102;2023-03-24T03:23:01;4.78;;;3.00;;
43676;SDS011;29275;48.800;18.102;2023-03-24T03:26:08;5.85;;;3.25;;
43676;SDS011;29275;48.800;18.102;2023-03-24T03:29:18;7.70;;;3.42;;
43676;SDS011;29275;48.800;18.102;2023-03-24T03:32:25;6.82;;;3.08;;
43676;SDS011;29275;48.800;18.102;2023-03-24T03:35:32;7.43;;;3.30;;
43676;SDS011;29275;48.800;18.102;2023-03-24T03:42:12;5.60;;;3.20;;
43676;SDS011;29275;48.800;18.102;2023-03-24T03:45:14;6.75;;;3.58;;
43676;SDS011;29275;48.800;18.102;2023-03-24T03:48:18;7.00;;;3.42;;
43676;SDS011;29275;48.800;18.102;2023-03-24T03:51:20;7.72;;;3.80;;
43676;SDS011;29275;48.800;18.102;2023-03-24T03:54:28;7.80;;;3.97;;
43676;SDS011;29275;48.800;18.102;2023-03-24T03:57:32;7.40;;;4.07;;
43676;SDS011;29275;48.800;18.102;2023-03-24T04:00:46;5.78;;;3.40;;
43676;SDS011;29275;48.800;18.102;2023-03-24T04:07:56;12.77;;;3.55;;
43676;SDS011;29275;48.800;18.102;2023-03-24T04:11:45;10.40;;;6.28;;
43676;SDS011;29275;48.800;18.102;2023-03-24T04:15:34;12.05;;;5.97;;
43676;SDS011;29275;48.800;18.102;2023-03-24T04:33:18;17.80;;;10.45;;
43676;SDS011;29275;48.800;18.102;2023-03-24T04:36:04;6.88;;;3.95;;
43676;SDS011;29275;48.800;18.102;2023-03-24T04:39:39;13.30;;;6.82;;
43676;SDS011;29275;48.800;18.102;2023-03-24T04:42:49;12.23;;;5.13;;
43676;SDS011;29275;48.800;18.102;2023-03-24T04:45:57;5.00;;;3.35;;
43676;SDS011;29275;48.800;18.102;2023-03-24T04:49:13;7.97;;;3.53;;
43676;SDS011;29275;48.800;18.102;2023-03-24T04:52:17;7.13;;;4.70;;
43676;SDS011;29275;48.800;18.102;2023-03-24T04:59:12;7.07;;;3.63;;
43676;SDS011;29275;48.800;18.102;2023-03-24T05:02:16;4.47;;;2.75;;
43676;SDS011;29275;48.800;18.102;2023-03-24T05:05:46;10.77;;;3.80;;
43676;SDS011;29275;48.800;18.102;2023-03-24T05:08:50;6.97;;;3.85;;
43676;SDS011;29275;48.800;18.102;2023-03-24T05:11:53;6.22;;;3.55;;
43676;SDS011;29275;48.800;18.102;2023-03-24T05:14:57;6.97;;;4.10;;
43676;SDS011;29275;48.800;18.102;2023-03-24T05:18:01;8.55;;;4.55;;
43676;SDS011;29275;48.800;18.102;2023-03-24T05:21:05;6.53;;;3.88;;
43676;SDS011;29275;48.800;18.102;2023-03-24T05:24:09;7.40;;;4.07;;
43676;SDS011;29275;48.800;18.102;2023-03-24T05:27:14;5.35;;;3.38;;
43676;SDS011;29275;48.800;18.102;2023-03-24T05:30:18;7.63;;;4.43;;
43676;SDS011;29275;48.800;18.102;2023-03-24T05:33:24;6.18;;;3.47;;
43676;SDS011;29275;48.800;18.102;2023-03-24T05:36:29;6.72;;;3.90;;
43676;SDS011;29275;48.800;18.102;2023-03-24T05:39:33;6.30;;;3.30;;
43676;SDS011;29275;48.800;18.102;2023-03-24T05:42:41;11.88;;;4.55;;
43676;SDS011;29275;48.800;18.102;2023-03-24T05:45:46;5.68;;;3.13;;
43676;SDS011;29275;48.800;18.102;2023-03-24T05:49:00;5.43;;;3.03;;
43676;SDS011;29275;48.800;18.102;2023-03-24T05:52:08;8.07;;;4.45;;
43676;SDS011;29275;48.800;18.102;2023-03-24T05:55:13;8.02;;;4.18;;
43676;SDS011;29275;48.800;18.102;2023-03-24T05:58:17;19.15;;;4.97;;
43676;SDS011;29275;48.800;18.102;2023-03-24T06:01:24;23.55;;;6.53;;
43676;SDS011;29275;48.800;18.102;2023-03-24T06:04:34;10.30;;;5.70;;
43676;SDS011;29275;48.800;18.102;2023-03-24T06:07:44;7.25;;;4.13;;
43676;SDS011;29275;48.800;18.102;2023-03-24T06:10:47;5.00;;;3.05;;
43676;SDS011;29275;48.800;18.102;2023-03-24T06:13:51;6.13;;;3.42;;
43676;SDS011;29275;48.800;18.102;2023-03-24T06:16:54;15.07;;;4.40;;
43676;SDS011;29275;48.800;18.102;2023-03-24T06:20:01;9.48;;;3.65;;
43676;SDS011;29275;48.800;18.102;2023-03-24T06:23:22;4.97;;;2.60;;
43676;SDS011;29275;48.800;18.102;2023-03-24T06:26:35;8.68;;;4.32;;
43676;SDS011;29275;48.800;18.102;2023-03-24T06:29:39;6.85;;;4.07;;
43676;SDS011;29275;48.800;18.102;2023-03-24T06:32:44;5.75;;;3.33;;
43676;SDS011;29275;48.800;18.102;2023-03-24T06:35:49;6.30;;;4.10;;
43676;SDS011;29275;48.800;18.102;2023-03-24T06:38:52;36.25;;;18.42;;
43676;SDS011;29275;48.800;18.102;2023-03-24T06:41:55;18.90;;;10.32;;
43676;SDS011;29275;48.800;18.102;2023-03-24T06:44:59;15.60;;;8.15;;
43676;SDS011;29275;48.800;18.102;2023-03-24T06:48:02;11.43;;;6.57;;
43676;SDS011;29275;48.800;18.102;2023-03-24T06:51:05;12.38;;;7.07;;
43676;SDS011;29275;48.800;18.102;2023-03-24T06:54:08;10.93;;;5.90;;
43676;SDS011;29275;48.800;18.102;2023-03-24T06:57:11;10.55;;;5.00;;
43676;SDS011;29275;48.800;18.102;2023-03-24T07:00:35;8.20;;;5.22;;
43676;SDS011;29275;48.800;18.102;2023-03-24T07:03:58;11.38;;;6.10;;
43676;SDS011;29275;48.800;18.102;2023-03-24T07:07:17;14.30;;;8.45;;
43676;SDS011;29275;48.800;18.102;2023-03-24T07:11:04;8.52;;;5.22;;
43676;SDS011;29275;48.800;18.102;2023-03-24T07:14:09;9.20;;;4.80;;
43676;SDS011;29275;48.800;18.102;2023-03-24T07:17:13;13.02;;;7.15;;
43676;SDS011;29275;48.800;18.102;2023-03-24T07:20:45;10.48;;;5.55;;
43676;SDS011;29275;48.800;18.102;2023-03-24T07:23:50;13.18;;;7.15;;
43676;SDS011;29275;48.800;18.102;2023-03-24T07:26:56;9.57;;;5.60;;
43676;SDS011;29275;48.800;18.102;2023-03-24T07:29:59;10.32;;;5.00;;
43676;SDS011;29275;48.800;18.102;2023-03-24T07:33:12;7.90;;;4.40;;
43676;SDS011;29275;48.800;18.102;2023-03-24T07:36:18;10.73;;;4.20;;
43676;SDS011;29275;48.800;18.102;2023-03-24T07:39:21;7.65;;;3.95;;
43676;SDS011;29275;48.800;18.102;2023-03-24T07:42:24;8.25;;;4.35;;
43676;SDS011;29275;48.800;18.102;2023-03-24T07:45:47;7.22;;;3.50;;
43676;SDS011;29275;48.800;18.102;2023-03-24T07:48:51;6.53;;;4.47;;
43676;SDS011;29275;48.800;18.102;2023-03-24T07:51:54;5.63;;;3.63;;
43676;SDS011;29275;48.800;18.102;2023-03-24T07:55:07;11.23;;;4.40;;
43676;SDS011;29275;48.800;18.102;2023-03-24T07:58:30;9.02;;;4.45;;
43676;SDS011;29275;48.800;18.102;2023-03-24T08:01:53;5.70;;;3.83;;
43676;SDS011;29275;48.800;18.102;2023-03-24T08:05:12;6.47;;;3.28;;
43676;SDS011;29275;48.800;18.102;2023-03-24T08:08:16;7.07;;;4.50;;
43676;SDS011;29275;48.800;18.102;2023-03-24T08:11:19;6.75;;;4.18;;
43676;SDS011;29275;48.800;18.102;2023-03-24T08:14:21;9.82;;;3.90;;
43676;SDS011;29275;48.800;18.102;2023-03-24T08:17:27;9.63;;;4.55;;
43676;SDS011;29275;48.800;18.102;2023-03-24T08:20:29;6.95;;;3.80;;
43676;SDS011;29275;48.800;18.102;2023-03-24T08:23:33;7.97;;;4.35;;
43676;SDS011;29275;48.800;18.102;2023-03-24T08:26:38;9.77;;;5.25;;
43676;SDS011;29275;48.800;18.102;2023-03-24T08:29:41;7.30;;;5.15;;
43676;SDS011;29275;48.800;18.102;2023-03-24T08:32:45;10.00;;;5.65;;
43676;SDS011;29275;48.800;18.102;2023-03-24T08:35:49;7.30;;;4.95;;
43676;SDS011;29275;48.800;18.102;2023-03-24T08:38:54;7.97;;;3.70;;
43676;SDS011;29275;48.800;18.102;2023-03-24T08:41:57;10.27;;;4.43;;
43676;SDS011;29275;48.800;18.102;2023-03-24T08:45:00;6.63;;;4.03;;
43676;SDS011;29275;48.800;18.102;2023-03-24T08:48:03;8.40;;;3.08;;
43676;SDS011;29275;48.800;18.102;2023-03-24T08:51:11;6.72;;;2.97;;
43676;SDS011;29275;48.800;18.102;2023-03-24T08:54:15;7.00;;;3.25;;
43676;SDS011;29275;48.800;18.102;2023-03-24T08:57:17;6.38;;;3.40;;
43676;SDS011;29275;48.800;18.102;2023-03-24T09:00:20;8.48;;;3.65;;
43676;SDS011;29275;48.800;18.102;2023-03-24T09:03:23;5.00;;;3.33;;
43676;SDS011;29275;48.800;18.102;2023-03-24T09:06:27;7.80;;;2.65;;
43676;SDS011;29275;48.800;18.102;2023-03-24T09:09:30;7.22;;;3.70;;
43676;SDS011;29275;48.800;18.102;2023-03-24T09:12:35;4.70;;;3.28;;
43676;SDS011;29275;48.800;18.102;2023-03-24T09:15:38;3.85;;;2.30;;
43676;SDS011;29275;48.800;18.102;2023-03-24T09:18:41;5.68;;;3.20;;
43676;SDS011;29275;48.800;18.102;2023-03-24T09:21:45;5.07;;;3.45;;
43676;SDS011;29275;48.800;18.102;2023-03-24T09:24:49;7.88;;;3.10;;
43676;SDS011;29275;48.800;18.102;2023-03-24T09:27:52;4.35;;;2.78;;
43676;SDS011;29275;48.800;18.102;2023-03-24T09:30:55;4.28;;;2.92;;
43676;SDS011;29275;48.800;18.102;2023-03-24T09:33:59;19.10;;;4.13;;
43676;SDS011;29275;48.800;18.102;2023-03-24T09:37:05;9.17;;;3.30;;
43676;SDS011;29275;48.800;18.102;2023-03-24T09:40:13;4.68;;;3.25;;
43676;SDS011;29275;48.800;18.102;2023-03-24T09:46:32;8.32;;;3.00;;
43676;SDS011;29275;48.800;18.102;2023-03-24T09:49:37;9.45;;;3.42;;
43676;SDS011;29275;48.800;18.102;2023-03-24T09:52:43;6.65;;;3.00;;
43676;SDS011;29275;48.800;18.102;2023-03-24T09:55:46;7.97;;;3.53;;
43676;SDS011;29275;48.800;18.102;2023-03-24T10:02:21;7.47;;;3.08;;
43676;SDS011;29275;48.800;18.102;2023-03-24T10:05:34;6.20;;;3.67;;
43676;SDS011;29275;48.800;18.102;2023-03-24T10:08:41;4.97;;;3.05;;
43676;SDS011;29275;48.800;18.102;2023-03-24T10:15:28;6.10;;;3.15;;
43676;SDS011;29275;48.800;18.102;2023-03-24T10:18:41;9.02;;;4.00;;
43676;SDS011;29275;48.800;18.102;2023-03-24T10:21:59;5.53;;;3.40;;
43676;SDS011;29275;48.800;18.102;2023-03-24T10:25:16;5.65;;;3.38;;
43676;SDS011;29275;48.800;18.102;2023-03-24T10:28:24;15.38;;;3.80;;
43676;SDS011;29275;48.800;18.102;2023-03-24T10:34:32;7.70;;;2.92;;
43676;SDS011;29275;48.800;18.102;2023-03-24T10:37:36;4.05;;;2.70;;
43676;SDS011;29275;48.800;18.102;2023-03-24T10:40:38;4.13;;;2.25;;
43676;SDS011;29275;48.800;18.102;2023-03-24T10:43:43;10.88;;;3.22;;
43676;SDS011;29275;48.800;18.102;2023-03-24T10:46:48;12.30;;;3.45;;
43676;SDS011;29275;48.800;18.102;2023-03-24T10:49:54;6.73;;;3.67;;
43676;SDS011;29275;48.800;18.102;2023-03-24T10:53:00;5.43;;;2.70;;
43676;SDS011;29275;48.800;18.102;2023-03-24T10:56:13;9.05;;;2.67;;
43676;SDS011;29275;48.800;18.102;2023-03-24T10:59:18;5.18;;;2.92;;
43676;SDS011;29275;48.800;18.102;2023-03-24T11:02:29;5.93;;;3.00;;
43676;SDS011;29275;48.800;18.102;2023-03-24T11:05:34;3.92;;;2.60;;
43676;SDS011;29275;48.800;18.102;2023-03-24T11:08:39;4.97;;;2.85;;
43676;SDS011;29275;48.800;18.102;2023-03-24T11:11:43;7.47;;;2.92;;
43676;SDS011;29275;48.800;18.102;2023-03-24T11:14:45;4.97;;;2.45;;
43676;SDS011;29275;48.800;18.102;2023-03-24T11:17:55;5.95;;;2.80;;
43676;SDS011;29275;48.800;18.102;2023-03-24T11:21:19;4.57;;;2.67;;
43676;SDS011;29275;48.800;18.102;2023-03-24T11:24:22;4.82;;;2.25;;
43676;SDS011;29275;48.800;18.102;2023-03-24T11:27:25;13.30;;;3.00;;
43676;SDS011;29275;48.800;18.102;2023-03-24T11:30:31;3.85;;;2.13;;
43676;SDS011;29275;48.800;18.102;2023-03-24T11:33:43;3.42;;;2.15;;
43676;SDS011;29275;48.800;18.102;2023-03-24T11:43:18;4.68;;;2.95;;
43676;SDS011;29275;48.800;18.102;2023-03-24T11:46:22;5.22;;;2.67;;
43676;SDS011;29275;48.800;18.102;2023-03-24T11:49:29;5.07;;;2.72;;
43676;SDS011;29275;48.800;18.102;2023-03-24T11:52:37;6.93;;;2.92;;
43676;SDS011;29275;48.800;18.102;2023-03-24T11:55:43;4.05;;;2.78;;
43676;SDS011;29275;48.800;18.102;2023-03-24T12:09:30;5.90;;;3.28;;
43676;SDS011;29275;48.800;18.102;2023-03-24T12:23:19;16.85;;;3.70;;
43676;SDS011;29275;48.800;18.102;2023-03-24T12:26:34;6.85;;;3.70;;
43676;SDS011;29275;48.800;18.102;2023-03-24T12:32:54;8.73;;;4.82;;
43676;SDS011;29275;48.800;18.102;2023-03-24T12:53:17;9.05;;;3.63;;
43676;SDS011;29275;48.800;18.102;2023-03-24T12:56:36;8.38;;;4.10;;
43676;SDS011;29275;48.800;18.102;2023-03-24T12:59:50;6.00;;;3.88;;
43676;SDS011;29275;48.800;18.102;2023-03-24T13:03:34;5.53;;;3.50;;
43676;SDS011;29275;48.800;18.102;2023-03-24T13:10:12;10.80;;;5.03;;
43676;SDS011;29275;48.800;18.102;2023-03-24T13:13:21;11.93;;;5.57;;
43676;SDS011;29275;48.800;18.102;2023-03-24T13:16:26;8.82;;;4.78;;
43676;SDS011;29275;48.800;18.102;2023-03-24T13:19:32;10.15;;;5.45;;
43676;SDS011;29275;48.800;18.102;2023-03-24T13:22:36;9.05;;;5.97;;
43676;SDS011;29275;48.800;18.102;2023-03-24T13:25:48;8.55;;;5.25;;
43676;SDS011;29275;48.800;18.102;2023-03-24T13:32:13;9.40;;;6.32;;
43676;SDS011;29275;48.800;18.102;2023-03-24T13:38:54;8.10;;;5.22;;
43676;SDS011;29275;48.800;18.102;2023-03-24T13:41:59;11.70;;;6.20;;
43676;SDS011;29275;48.800;18.102;2023-03-24T13:45:03;8.27;;;5.28;;
43676;SDS011;29275;48.800;18.102;2023-03-24T13:54:34;12.38;;;6.35;;
43676;SDS011;29275;48.800;18.102;2023-03-24T13:57:39;9.90;;;5.80;;
43676;SDS011;29275;48.800;18.102;2023-03-24T14:13:46;9.43;;;5.43;;
43676;SDS011;29275;48.800;18.102;2023-03-24T14:23:20;11.18;;;5.22;;
43676;SDS011;29275;48.800;18.102;2023-03-24T14:26:36;9.32;;;4.85;;
43676;SDS011;29275;48.800;18.102;2023-03-24T14:30:01;7.63;;;5.07;;
43676;SDS011;29275;48.800;18.102;2023-03-24T14:33:19;11.38;;;5.25;;
43676;SDS011;29275;48.800;18.102;2023-03-24T14:39:44;7.88;;;4.88;;
43676;SDS011;29275;48.800;18.102;2023-03-24T14:45:57;10.18;;;5.55;;
43676;SDS011;29275;48.800;18.102;2023-03-24T14:52:34;7.00;;;4.70;;
43676;SDS011;29275;48.800;18.102;2023-03-24T14:55:42;10.68;;;4.90;;
43676;SDS011;29275;48.800;18.102;2023-03-24T14:58:45;7.50;;;4.35;;
43676;SDS011;29275;48.800;18.102;2023-03-24T15:01:51;8.63;;;4.65;;
43676;SDS011;29275;48.800;18.102;2023-03-24T15:08:25;9.23;;;4.65;;
43676;SDS011;29275;48.800;18.102;2023-03-24T15:11:30;14.68;;;5.25;;
43676;SDS011;29275;48.800;18.102;2023-03-24T15:14:35;8.75;;;4.68;;
43676;SDS011;29275;48.800;18.102;2023-03-24T15:17:39;11.07;;;4.70;;
43676;SDS011;29275;48.800;18.102;2023-03-24T15:20:44;11.48;;;4.55;;
43676;SDS011;29275;48.800;18.102;2023-03-24T15:23:47;8.10;;;5.25;;
43676;SDS011;29275;48.800;18.102;2023-03-24T15:26:55;9.20;;;4.93;;
43676;SDS011;29275;48.800;18.102;2023-03-24T15:30:19;7.55;;;4.22;;
43676;SDS011;29275;48.800;18.102;2023-03-24T15:33:22;12.45;;;4.63;;
43676;SDS011;29275;48.800;18.102;2023-03-24T15:36:27;6.93;;;3.83;;
43676;SDS011;29275;48.800;18.102;2023-03-24T15:39:36;9.25;;;4.75;;
43676;SDS011;29275;48.800;18.102;2023-03-24T15:42:40;9.88;;;5.10;;
43676;SDS011;29275;48.800;18.102;2023-03-24T15:45:49;12.35;;;4.85;;
43676;SDS011;29275;48.800;18.102;2023-03-24T15:49:16;12.05;;;5.55;;
43676;SDS011;29275;48.800;18.102;2023-03-24T15:52:26;10.07;;;4.80;;
43676;SDS011;29275;48.800;18.102;2023-03-24T15:55:40;8.90;;;5.68;;
43676;SDS011;29275;48.800;18.102;2023-03-24T15:58:55;9.00;;;5.40;;
43676;SDS011;29275;48.800;18.102;2023-03-24T16:02:29;17.17;;;6.57;;
43676;SDS011;29275;48.800;18.102;2023-03-24T16:05:44;13.23;;;7.03;;
43676;SDS011;29275;48.800;18.102;2023-03-24T16:08:49;12.63;;;7.28;;
43676;SDS011;29275;48.800;18.102;2023-03-24T16:11:52;15.07;;;6.45;;
43676;SDS011;29275;48.800;18.102;2023-03-24T16:14:55;13.50;;;7.03;;
43676;SDS011;29275;48.800;18.102;2023-03-24T16:17:58;27.30;;;13.18;;
43676;SDS011;29275;48.800;18.102;2023-03-24T16:21:14;21.52;;;13.90;;
43676;SDS011;29275;48.800;18.102;2023-03-24T16:24:22;8.25;;;6.13;;
43676;SDS011;29275;48.800;18.102;2023-03-24T16:27:28;8.02;;;4.65;;
43676;SDS011;29275;48.800;18.102;2023-03-24T16:30:31;8.45;;;4.35;;
43676;SDS011;29275;48.800;18.102;2023-03-24T16:33:39;6.65;;;4.28;;
43676;SDS011;29275;48.800;18.102;2023-03-24T16:36:42;8.32;;;4.90;;
43676;SDS011;29275;48.800;18.102;2023-03-24T16:39:45;7.00;;;4.53;;
43676;SDS011;29275;48.800;18.102;2023-03-24T16:42:47;10.10;;;4.88;;
43676;SDS011;29275;48.800;18.102;2023-03-24T16:45:51;8.10;;;4.50;;
43676;SDS011;29275;48.800;18.102;2023-03-24T16:48:54;7.40;;;4.82;;
43676;SDS011;29275;48.800;18.102;2023-03-24T16:52:00;9.48;;;4.43;;
43676;SDS011;29275;48.800;18.102;2023-03-24T16:55:03;6.63;;;4.60;;
43676;SDS011;29275;48.800;18.102;2023-03-24T16:58:08;5.22;;;3.70;;
43676;SDS011;29275;48.800;18.102;2023-03-24T17:01:16;6.43;;;4.53;;
43676;SDS011;29275;48.800;18.102;2023-03-24T17:04:28;13.82;;;5.45;;
43676;SDS011;29275;48.800;18.102;2023-03-24T17:10:38;7.90;;;4.80;;
43676;SDS011;29275;48.800;18.102;2023-03-24T17:13:43;10.00;;;5.13;;
43676;SDS011;29275;48.800;18.102;2023-03-24T17:16:46;10.02;;;4.72;;
43676;SDS011;29275;48.800;18.102;2023-03-24T17:19:50;21.20;;;11.48;;
43676;SDS011;29275;48.800;18.102;2023-03-24T17:22:53;9.57;;;5.97;;
43676;SDS011;29275;48.800;18.102;2023-03-24T17:25:58;10.50;;;6.35;;
43676;SDS011;29275;48.800;18.102;2023-03-24T17:29:01;8.60;;;4.68;;
43676;SDS011;29275;48.800;18.102;2023-03-24T17:32:05;27.80;;;13.15;;
43676;SDS011;29275;48.800;18.102;2023-03-24T17:35:12;9.88;;;7.13;;
43676;SDS011;29275;48.800;18.102;2023-03-24T17:38:16;7.78;;;4.97;;
43676;SDS011;29275;48.800;18.102;2023-03-24T17:41:20;13.00;;;6.38;;
43676;SDS011;29275;48.800;18.102;2023-03-24T17:44:23;9.25;;;4.95;;
43676;SDS011;29275;48.800;18.102;2023-03-24T17:47:26;9.77;;;6.53;;
43676;SDS011;29275;48.800;18.102;2023-03-24T17:50:28;13.10;;;7.05;;
43676;SDS011;29275;48.800;18.102;2023-03-24T17:53:32;13.45;;;7.68;;
43676;SDS011;29275;48.800;18.102;2023-03-24T17:56:35;15.23;;;8.07;;
43676;SDS011;29275;48.800;18.102;2023-03-24T17:59:38;14.98;;;8.95;;
43676;SDS011;29275;48.800;18.102;2023-03-24T18:02:41;19.60;;;10.10;;
43676;SDS011;29275;48.800;18.102;2023-03-24T18:05:45;11.70;;;8.35;;
43676;SDS011;29275;48.800;18.102;2023-03-24T18:08:51;13.15;;;8.43;;
43676;SDS011;29275;48.800;18.102;2023-03-24T18:11:53;13.73;;;8.63;;
43676;SDS011;29275;48.800;18.102;2023-03-24T18:14:57;16.35;;;9.98;;
43676;SDS011;29275;48.800;18.102;2023-03-24T18:18:00;15.48;;;8.75;;
43676;SDS011;29275;48.800;18.102;2023-03-24T18:21:08;13.63;;;9.25;;
43676;SDS011;29275;48.800;18.102;2023-03-24T18:24:11;18.67;;;10.48;;
43676;SDS011;29275;48.800;18.102;2023-03-24T18:27:14;23.10;;;14.95;;
43676;SDS011;29275;48.800;18.102;2023-03-24T18:30:18;24.48;;;14.23;;
43676;SDS011;29275;48.800;18.102;2023-03-24T18:33:24;18.90;;;13.80;;
43676;SDS011;29275;48.800;18.102;2023-03-24T18:36:27;25.90;;;16.42;;
43676;SDS011;29275;48.800;18.102;2023-03-24T18:39:33;14.93;;;10.43;;
43676;SDS011;29275;48.800;18.102;2023-03-24T18:42:36;13.57;;;9.40;;
43676;SDS011;29275;48.800;18.102;2023-03-24T18:45:39;12.98;;;7.93;;
43676;SDS011;29275;48.800;18.102;2023-03-24T18:48:43;23.38;;;13.05;;
43676;SDS011;29275;48.800;18.102;2023-03-24T18:51:48;13.25;;;7.45;;
43676;SDS011;29275;48.800;18.102;2023-03-24T18:54:51;11.70;;;6.30;;
43676;SDS011;29275;48.800;18.102;2023-03-24T18:57:55;7.50;;;4.88;;
43676;SDS011;29275;48.800;18.102;2023-03-24T19:01:02;10.50;;;5.60;;
43676;SDS011;29275;48.800;18.102;2023-03-24T19:04:09;7.25;;;4.60;;
43676;SDS011;29275;48.800;18.102;2023-03-24T19:07:15;7.37;;;5.00;;
43676;SDS011;29275;48.800;18.102;2023-03-24T19:10:26;8.93;;;4.93;;
43676;SDS011;29275;48.800;18.102;2023-03-24T19:13:30;13.30;;;8.85;;
43676;SDS011;29275;48.800;18.102;2023-03-24T19:16:33;13.10;;;8.30;;
43676;SDS011;29275;48.800;18.102;2023-03-24T19:19:36;17.30;;;10.63;;
43676;SDS011;29275;48.800;18.102;2023-03-24T19:22:42;22.30;;;12.13;;
43676;SDS011;29275;48.800;18.102;2023-03-24T19:25:46;24.88;;;13.00;;
43676;SDS011;29275;48.800;18.102;2023-03-24T19:28:56;16.65;;;9.55;;
43676;SDS011;29275;48.800;18.102;2023-03-24T19:32:02;22.88;;;13.00;;
43676;SDS011;29275;48.800;18.102;2023-03-24T19:35:06;26.27;;;14.57;;
43676;SDS011;29275;48.800;18.102;2023-03-24T19:38:09;21.38;;;12.00;;
43676;SDS011;29275;48.800;18.102;2023-03-24T19:41:15;12.82;;;7.85;;
43676;SDS011;29275;48.800;18.102;2023-03-24T19:44:19;10.13;;;7.05;;
43676;SDS011;29275;48.800;18.102;2023-03-24T19:47:24;12.57;;;7.45;;
43676;SDS011;29275;48.800;18.102;2023-03-24T19:50:27;12.57;;;6.90;;
43676;SDS011;29275;48.800;18.102;2023-03-24T19:53:29;11.40;;;7.47;;
43676;SDS011;29275;48.800;18.102;2023-03-24T19:56:32;10.35;;;6.75;;
43676;SDS011;29275;48.800;18.102;2023-03-24T19:59:35;11.13;;;6.43;;
43676;SDS011;29275;48.800;18.102;2023-03-24T20:02:39;8.68;;;5.47;;
43676;SDS011;29275;48.800;18.102;2023-03-24T20:05:42;11.07;;;7.63;;
43676;SDS011;29275;48.800;18.102;2023-03-24T20:08:47;14.32;;;7.25;;
43676;SDS011;29275;48.800;18.102;2023-03-24T20:11:50;15.30;;;8.45;;
43676;SDS011;29275;48.800;18.102;2023-03-24T20:14:54;18.55;;;9.23;;
43676;SDS011;29275;48.800;18.102;2023-03-24T20:17:57;17.48;;;10.90;;
43676;SDS011;29275;48.800;18.102;2023-03-24T20:21:04;10.63;;;7.25;;
43676;SDS011;29275;48.800;18.102;2023-03-24T20:24:08;10.13;;;6.25;;
43676;SDS011;29275;48.800;18.102;2023-03-24T20:27:16;10.13;;;6.35;;
43676;SDS011;29275;48.800;18.102;2023-03-24T20:30:20;9.20;;;6.18;;
43676;SDS011;29275;48.800;18.102;2023-03-24T20:33:23;11.63;;;7.25;;
43676;SDS011;29275;48.800;18.102;2023-03-24T20:36:31;13.55;;;7.30;;
43676;SDS011;29275;48.800;18.102;2023-03-24T20:39:34;11.80;;;5.80;;
43676;SDS011;29275;48.800;18.102;2023-03-24T20:42:40;9.52;;;6.30;;
43676;SDS011;29275;48.800;18.102;2023-03-24T20:45:43;13.30;;;8.00;;
43676;SDS011;29275;48.800;18.102;2023-03-24T20:48:49;10.87;;;7.20;;
43676;SDS011;29275;48.800;18.102;2023-03-24T20:51:52;9.70;;;7.22;;
43676;SDS011;29275;48.800;18.102;2023-03-24T20:54:56;11.73;;;7.25;;
43676;SDS011;29275;48.800;18.102;2023-03-24T20:57:58;15.20;;;7.78;;
43676;SDS011;29275;48.800;18.102;2023-03-24T21:01:07;12.05;;;7.97;;
43676;SDS011;29275;48.800;18.102;2023-03-24T21:04:10;8.27;;;5.68;;
43676;SDS011;29275;48.800;18.102;2023-03-24T21:07:14;11.75;;;6.07;;
43676;SDS011;29275;48.800;18.102;2023-03-24T21:10:17;11.30;;;7.32;;
43676;SDS011;29275;48.800;18.102;2023-03-24T21:13:21;11.15;;;6.50;;
43676;SDS011;29275;48.800;18.102;2023-03-24T21:16:28;11.07;;;6.60;;
43676;SDS011;29275;48.800;18.102;2023-03-24T21:19:35;9.60;;;4.75;;
43676;SDS011;29275;48.800;18.102;2023-03-24T21:22:41;7.72;;;4.72;;